createdAt,value
2019-05-21T00:00:34.474Z,5.07
2019-05-21T00:05:40.925Z,4.92
2019-05-21T00:10:47.052Z,5.42
2019-05-21T00:15:53.481Z,4.95
2019-05-21T00:20:59.615Z,5.45
2019-05-21T00:26:05.781Z,4.94
2019-05-21T00:31:12.079Z,4.96
2019-05-21T00:36:18.378Z,4.88
2019-05-21T00:41:24.549Z,5.44
2019-05-21T00:46:30.852Z,5.20
2019-05-21T00:51:37.183Z,4.79
2019-05-21T00:56:43.419Z,5.05
2019-05-21T01:01:50.029Z,5.01
2019-05-21T01:06:56.516Z,5.78
2019-05-21T01:12:03.051Z,5.39
2019-05-21T01:17:09.304Z,8.01
2019-05-21T01:22:15.601Z,6.18
2019-05-21T01:27:21.915Z,6.86
2019-05-21T01:32:28.064Z,5.79
2019-05-21T01:37:34.296Z,6.23
2019-05-21T01:42:40.477Z,7.10
2019-05-21T01:47:46.871Z,8.80
2019-05-21T01:52:53.078Z,8.83
2019-05-21T01:57:59.525Z,8.56
2019-05-21T02:03:05.686Z,8.16
2019-05-21T02:08:11.975Z,8.13
2019-05-21T02:13:18.162Z,8.11
2019-05-21T02:18:24.560Z,8.65
2019-05-21T02:23:30.727Z,8.48
2019-05-21T02:28:37.399Z,8.53
2019-05-21T02:33:43.682Z,9.34
2019-05-21T02:38:50.187Z,9.34
2019-05-21T02:43:56.361Z,9.58
2019-05-21T02:49:02.619Z,9.40
2019-05-21T02:54:08.813Z,10.46
2019-05-21T02:59:15.138Z,9.63
2019-05-21T03:04:21.401Z,9.89
2019-05-21T03:09:27.880Z,9.98
2019-05-21T03:14:34.126Z,10.12
2019-05-21T03:19:40.331Z,9.95
2019-05-21T03:24:46.434Z,10.36
2019-05-21T03:29:52.804Z,10.69
2019-05-21T03:34:58.982Z,10.92
2019-05-21T03:40:05.200Z,11.35
2019-05-21T03:45:11.622Z,12.17
2019-05-21T03:50:18.030Z,12.46
2019-05-21T03:55:26.245Z,12.08
2019-05-21T04:00:32.516Z,12.02
2019-05-21T04:05:38.951Z,12.33
2019-05-21T04:10:45.432Z,13.02
2019-05-21T04:15:51.739Z,13.47
2019-05-21T04:20:58.014Z,13.06
2019-05-21T04:26:04.282Z,14.44
2019-05-21T04:31:10.600Z,14.56
2019-05-21T04:36:16.859Z,14.67
2019-05-21T04:41:23.466Z,13.98
2019-05-21T04:46:29.932Z,14.37
2019-05-21T04:51:36.417Z,14.38
2019-05-21T04:56:42.713Z,14.78
2019-05-21T05:01:48.956Z,15.61
2019-05-21T05:06:55.220Z,15.16
2019-05-21T05:12:01.547Z,15.52
2019-05-21T05:17:08.007Z,15.19
2019-05-21T05:22:14.235Z,16.05
2019-05-21T05:27:20.482Z,16.56
2019-05-21T05:32:36.156Z,15.93
2019-05-21T05:37:43.182Z,17.88
2019-05-21T05:42:39.015Z,17.84
2019-05-21T05:47:45.168Z,17.52
2019-05-21T05:52:51.959Z,17.28
2019-05-21T05:57:58.727Z,17.33
2019-05-21T06:03:05.374Z,18.01
2019-05-21T06:08:11.761Z,17.48
2019-05-21T06:13:18.273Z,18.44
2019-05-21T06:18:24.681Z,18.32
2019-05-21T06:23:30.939Z,20.71
2019-05-21T06:28:37.389Z,20.39
2019-05-21T06:33:43.977Z,19.68
2019-05-21T06:38:51.845Z,19.96
2019-05-21T06:43:58.079Z,19.56
2019-05-21T06:49:04.634Z,19.99
2019-05-21T06:54:11.073Z,20.47
2019-05-21T06:59:17.427Z,23.64
2019-05-21T07:04:24.036Z,24.86
2019-05-21T07:09:30.555Z,24.74
2019-05-21T07:14:36.809Z,25.45
2019-05-21T07:19:43.012Z,27.23
2019-05-21T07:24:49.284Z,26.73
2019-05-21T07:29:55.761Z,26.18
2019-05-21T07:35:02.463Z,25.70
2019-05-21T07:40:08.873Z,22.61
2019-05-21T07:45:15.309Z,24.56
2019-05-21T07:50:21.714Z,22.85
2019-05-21T07:55:27.933Z,24.26
2019-05-21T08:00:34.301Z,26.37
2019-05-21T08:05:40.584Z,23.19
2019-05-21T08:10:47.041Z,22.31
2019-05-21T08:15:53.312Z,22.47
2019-05-21T08:20:59.600Z,23.03
2019-05-21T08:26:06.458Z,21.04
2019-05-21T08:31:12.665Z,22.42
2019-05-21T08:36:19.180Z,21.87
2019-05-21T08:41:25.863Z,19.53
2019-05-21T08:46:32.305Z,18.69
2019-05-21T08:51:38.584Z,19.17
2019-05-21T08:56:44.768Z,19.00
2019-05-21T09:01:51.177Z,21.08
2019-05-21T09:06:57.459Z,21.18
2019-05-21T09:12:03.930Z,21.31
2019-05-21T09:17:10.742Z,22.34
2019-05-21T09:22:17.553Z,23.15
2019-05-21T09:27:23.938Z,20.81
2019-05-21T09:32:30.147Z,21.03
2019-05-21T09:37:36.392Z,20.00
2019-05-21T09:42:45.238Z,19.85
2019-05-21T09:47:52.124Z,19.12
2019-05-21T09:52:58.682Z,19.14
2019-05-21T09:58:05.036Z,19.27
2019-05-21T10:03:11.401Z,17.88
2019-05-21T10:08:17.652Z,17.67
2019-05-21T10:13:24.069Z,17.87
2019-05-21T10:18:30.199Z,18.19
2019-05-21T10:23:37.031Z,19.26
2019-05-21T10:28:43.196Z,20.23
2019-05-21T10:33:49.561Z,20.63
2019-05-21T10:38:55.719Z,20.48
2019-05-21T10:44:02.080Z,18.92
2019-05-21T10:49:08.608Z,18.52
2019-05-21T10:54:14.908Z,18.71
2019-05-21T10:59:21.276Z,18.25
2019-05-21T11:04:27.890Z,18.64
2019-05-21T11:09:34.358Z,18.51
2019-05-21T11:14:41.080Z,18.79
2019-05-21T11:19:47.635Z,19.76
2019-05-21T11:24:54.187Z,19.84
2019-05-21T11:30:00.651Z,18.72
2019-05-21T11:35:10.549Z,18.53
2019-05-21T11:40:17.024Z,18.27
2019-05-21T11:45:32.393Z,19.11
2019-05-21T11:50:29.717Z,17.80
2019-05-21T11:55:36.144Z,19.89
2019-05-21T12:00:42.733Z,19.58
2019-05-21T12:05:49.469Z,18.38
2019-05-21T12:10:55.693Z,18.69
2019-05-21T12:16:02.018Z,19.98
2019-05-21T12:21:08.645Z,18.91
2019-05-21T12:26:15.129Z,20.13
2019-05-21T12:31:21.503Z,22.33
2019-05-21T12:36:27.835Z,22.13
2019-05-21T12:41:34.644Z,24.35
2019-05-21T12:46:41.259Z,23.83
2019-05-21T12:51:47.673Z,28.36
2019-05-21T12:56:54.232Z,28.21
2019-05-21T13:02:00.424Z,26.56
2019-05-21T13:07:06.797Z,25.50
2019-05-21T13:12:13.204Z,27.15
2019-05-21T13:17:19.965Z,27.14
2019-05-21T13:22:30.508Z,26.95
2019-05-21T13:27:26.967Z,27.22
2019-05-21T13:32:33.350Z,26.29
2019-05-21T13:37:39.552Z,23.48
2019-05-21T13:42:45.974Z,26.05
2019-05-21T13:47:52.789Z,28.10
2019-05-21T13:52:59.058Z,30.13
2019-05-21T13:58:05.413Z,29.88
2019-05-21T14:03:11.745Z,26.64
2019-05-21T14:08:18.452Z,25.18
2019-05-21T14:13:24.976Z,23.54
2019-05-21T14:18:31.319Z,30.42
2019-05-21T14:23:37.823Z,25.93
2019-05-21T14:28:44.273Z,28.36
2019-05-21T14:33:51.048Z,27.91
2019-05-21T14:38:57.599Z,25.09
2019-05-21T14:44:04.291Z,26.52
2019-05-21T14:49:10.751Z,26.34
2019-05-21T14:54:26.052Z,24.74
2019-05-21T14:59:22.781Z,28.92
2019-05-21T15:04:29.747Z,26.17
2019-05-21T15:09:36.594Z,25.67
2019-05-21T15:14:42.939Z,29.28
2019-05-21T15:19:49.623Z,31.77
2019-05-21T15:24:56.233Z,28.63
2019-05-21T15:30:02.944Z,28.78
2019-05-21T15:35:09.431Z,24.12
2019-05-21T15:40:16.000Z,24.10
2019-05-21T15:45:22.351Z,24.61
2019-05-21T15:50:28.796Z,19.81
2019-05-21T15:55:35.253Z,16.98
2019-05-21T16:00:41.451Z,16.76
2019-05-21T16:05:47.699Z,12.09
2019-05-21T16:10:53.887Z,12.33
2019-05-21T16:16:00.077Z,13.08
2019-05-21T16:21:06.518Z,14.53
2019-05-21T16:26:12.722Z,14.02
2019-05-21T16:31:20.354Z,14.10
2019-05-21T16:36:26.859Z,14.97
2019-05-21T16:41:44.259Z,14.70
2019-05-21T16:46:42.893Z,13.34
2019-05-21T16:51:49.192Z,12.32
2019-05-21T16:56:55.496Z,14.79
2019-05-21T17:02:02.204Z,16.89
2019-05-21T17:07:08.382Z,17.47
2019-05-21T17:12:14.557Z,15.50
2019-05-21T17:17:20.762Z,17.16
2019-05-21T17:22:26.972Z,19.87
2019-05-21T17:27:33.342Z,20.40
2019-05-21T17:32:39.568Z,17.24
2019-05-21T17:37:46.039Z,16.05
2019-05-21T17:42:52.427Z,17.26
2019-05-21T17:47:58.838Z,16.84
2019-05-21T17:53:06.103Z,18.29
2019-05-21T17:58:12.481Z,20.68
2019-05-21T18:03:20.015Z,22.48
2019-05-21T18:08:26.671Z,20.29
2019-05-21T18:13:33.149Z,20.47
2019-05-21T18:18:39.812Z,21.29
2019-05-21T18:23:46.290Z,22.46
2019-05-21T18:28:53.010Z,19.88
2019-05-21T18:34:01.257Z,20.72
2019-05-21T18:39:08.161Z,20.76
2019-05-21T18:44:14.932Z,20.21
2019-05-21T18:49:21.331Z,20.72
2019-05-21T18:54:27.764Z,20.53
2019-05-21T18:59:34.245Z,22.30
2019-05-21T19:04:40.619Z,20.83
2019-05-21T19:09:46.855Z,22.71
2019-05-21T19:14:53.144Z,21.61
2019-05-21T19:19:59.374Z,18.07
2019-05-21T19:25:05.620Z,19.50
2019-05-21T19:30:12.172Z,15.75
2019-05-21T19:35:18.743Z,17.22
2019-05-21T19:40:25.058Z,15.49
2019-05-21T19:45:31.585Z,16.31
2019-05-21T19:50:37.885Z,16.68
2019-05-21T19:55:44.365Z,17.25
2019-05-21T20:00:50.986Z,18.54
2019-05-21T20:05:57.879Z,16.66
2019-05-21T20:11:04.479Z,13.83
2019-05-21T20:16:11.018Z,14.24
2019-05-21T20:21:17.383Z,14.03
2019-05-21T20:26:23.799Z,16.35
2019-05-21T20:31:30.199Z,16.26
2019-05-21T20:36:36.517Z,17.51
2019-05-21T20:41:42.891Z,17.75
2019-05-21T20:46:49.270Z,20.61
2019-05-21T20:51:56.593Z,17.73
2019-05-21T20:57:02.859Z,16.23
2019-05-21T21:02:09.036Z,18.36
2019-05-21T21:07:15.597Z,16.57
2019-05-21T21:12:22.273Z,18.57
2019-05-21T21:17:28.636Z,16.41
2019-05-21T21:22:34.959Z,16.42
2019-05-21T21:27:42.150Z,16.39
2019-05-21T21:32:49.152Z,16.06
2019-05-21T21:37:55.471Z,15.25
2019-05-21T21:43:01.910Z,14.43
2019-05-21T21:48:08.332Z,14.14
2019-05-21T21:53:16.781Z,13.82
2019-05-21T21:58:23.293Z,13.65
2019-05-21T22:03:29.922Z,13.52
2019-05-21T22:08:37.199Z,13.80
2019-05-21T22:13:43.663Z,14.00
2019-05-21T22:18:49.885Z,14.93
2019-05-21T22:24:03.943Z,13.68
2019-05-21T22:29:00.432Z,13.97
2019-05-21T22:34:06.537Z,14.12
2019-05-21T22:39:12.710Z,14.91
2019-05-21T22:44:18.840Z,15.27
2019-05-21T22:49:25.171Z,14.40
2019-05-21T22:54:31.338Z,15.51
2019-05-21T22:59:37.940Z,16.08
2019-05-21T23:04:44.327Z,18.90
2019-05-21T23:09:50.686Z,18.69
2019-05-21T23:14:56.903Z,20.38
2019-05-21T23:20:03.204Z,19.93
2019-05-21T23:25:09.431Z,19.94
2019-05-21T23:30:16.007Z,20.03
2019-05-21T23:35:22.442Z,19.67
2019-05-21T23:40:28.792Z,18.23
2019-05-21T23:45:35.168Z,17.44
2019-05-21T23:50:42.363Z,20.11
2019-05-21T23:55:48.770Z,17.69
